sensor_id;sensor_type;location;lat;lon;timestamp;P1;durP1;ratioP1;P2;durP2;ratioP2
9842;SDS011;4960;48.736;9.108;2022-11-09T00:02:21;4.27;;;1.67;;
9842;SDS011;4960;48.736;9.108;2022-11-09T00:04:49;1.93;;;1.33;;
9842;SDS011;4960;48.736;9.108;2022-11-09T00:07:16;3.90;;;1.90;;
9842;SDS011;4960;48.736;9.108;2022-11-09T00:09:43;2.37;;;1.73;;
9842;SDS011;4960;48.736;9.108;2022-11-09T00:12:10;3.23;;;1.70;;
9842;SDS011;4960;48.736;9.108;2022-11-09T00:14:37;4.23;;;1.30;;
9842;SDS011;4960;48.736;9.108;2022-11-09T00:17:04;1.57;;;1.47;;
9842;SDS011;4960;48.736;9.108;2022-11-09T00:19:33;2.97;;;1.40;;
9842;SDS011;4960;48.736;9.108;2022-11-09T00:22:00;3.13;;;1.60;;
9842;SDS011;4960;48.736;9.108;2022-11-09T00:24:27;1.77;;;1.67;;
9842;SDS011;4960;48.736;9.108;2022-11-09T00:26:54;3.63;;;1.90;;
9842;SDS011;4960;48.736;9.108;2022-11-09T00:29:22;3.50;;;1.63;;
9842;SDS011;4960;48.736;9.108;2022-11-09T00:31:49;3.27;;;1.73;;
9842;SDS011;4960;48.736;9.108;2022-11-09T00:34:16;3.10;;;1.40;;
9842;SDS011;4960;48.736;9.108;2022-11-09T00:36:44;2.00;;;1.30;;
9842;SDS011;4960;48.736;9.108;2022-11-09T00:39:11;1.93;;;1.40;;
9842;SDS011;4960;48.736;9.108;2022-11-09T00:41:39;1.90;;;1.50;;
9842;SDS011;4960;48.736;9.108;2022-11-09T00:44:06;2.60;;;1.40;;
9842;SDS011;4960;48.736;9.108;2022-11-09T00:46:33;1.30;;;1.20;;
9842;SDS011;4960;48.736;9.108;2022-11-09T00:49:00;2.70;;;1.40;;
9842;SDS011;4960;48.736;9.108;2022-11-09T00:51:27;1.30;;;1.13;;
9842;SDS011;4960;48.736;9.108;2022-11-09T00:53:56;1.83;;;1.43;;
9842;SDS011;4960;48.736;9.108;2022-11-09T00:56:23;2.90;;;1.37;;
9842;SDS011;4960;48.736;9.108;2022-11-09T00:58:53;4.17;;;1.30;;
9842;SDS011;4960;48.736;9.108;2022-11-09T01:01:21;3.33;;;1.30;;
9842;SDS011;4960;48.736;9.108;2022-11-09T01:03:48;1.40;;;1.30;;
9842;SDS011;4960;48.736;9.108;2022-11-09T01:06:16;2.13;;;1.60;;
9842;SDS011;4960;48.736;9.108;2022-11-09T01:08:43;2.20;;;1.40;;
9842;SDS011;4960;48.736;9.108;2022-11-09T01:11:12;1.57;;;1.47;;
9842;SDS011;4960;48.736;9.108;2022-11-09T01:13:39;3.27;;;1.83;;
9842;SDS011;4960;48.736;9.108;2022-11-09T01:16:08;4.60;;;1.60;;
9842;SDS011;4960;48.736;9.108;2022-11-09T01:18:35;4.60;;;1.50;;
9842;SDS011;4960;48.736;9.108;2022-11-09T01:21:05;2.43;;;1.40;;
9842;SDS011;4960;48.736;9.108;2022-11-09T01:23:33;4.80;;;1.47;;
9842;SDS011;4960;48.736;9.108;2022-11-09T01:26:02;2.27;;;1.40;;
9842;SDS011;4960;48.736;9.108;2022-11-09T01:28:30;1.60;;;1.50;;
9842;SDS011;4960;48.736;9.108;2022-11-09T01:30:59;2.00;;;1.40;;
9842;SDS011;4960;48.736;9.108;2022-11-09T01:33:27;2.13;;;1.60;;
9842;SDS011;4960;48.736;9.108;2022-11-09T01:35:54;2.23;;;1.70;;
9842;SDS011;4960;48.736;9.108;2022-11-09T01:38:21;2.03;;;1.30;;
9842;SDS011;4960;48.736;9.108;2022-11-09T01:40:48;2.80;;;1.30;;
9842;SDS011;4960;48.736;9.108;2022-11-09T01:43:16;2.73;;;1.80;;
9842;SDS011;4960;48.736;9.108;2022-11-09T01:45:45;1.60;;;1.50;;
9842;SDS011;4960;48.736;9.108;2022-11-09T01:48:14;4.00;;;1.57;;
9842;SDS011;4960;48.736;9.108;2022-11-09T01:50:46;5.47;;;1.63;;
9842;SDS011;4960;48.736;9.108;2022-11-09T01:53:20;1.93;;;1.50;;
9842;SDS011;4960;48.736;9.108;2022-11-09T01:55:50;1.67;;;1.57;;
9842;SDS011;4960;48.736;9.108;2022-11-09T01:58:19;3.90;;;1.47;;
9842;SDS011;4960;48.736;9.108;2022-11-09T02:00:49;3.77;;;1.73;;
9842;SDS011;4960;48.736;9.108;2022-11-09T02:03:18;2.83;;;1.70;;
9842;SDS011;4960;48.736;9.108;2022-11-09T02:05:46;3.43;;;1.63;;
9842;SDS011;4960;48.736;9.108;2022-11-09T02:08:16;1.97;;;1.47;;
9842;SDS011;4960;48.736;9.108;2022-11-09T02:10:44;3.13;;;1.43;;
9842;SDS011;4960;48.736;9.108;2022-11-09T02:13:14;2.03;;;1.83;;
9842;SDS011;4960;48.736;9.108;2022-11-09T02:15:42;1.73;;;1.53;;
9842;SDS011;4960;48.736;9.108;2022-11-09T02:18:11;3.37;;;1.33;;
9842;SDS011;4960;48.736;9.108;2022-11-09T02:20:44;1.90;;;1.43;;
9842;SDS011;4960;48.736;9.108;2022-11-09T02:23:12;2.10;;;1.50;;
9842;SDS011;4960;48.736;9.108;2022-11-09T02:25:39;1.97;;;1.60;;
9842;SDS011;4960;48.736;9.108;2022-11-09T02:28:06;1.50;;;1.33;;
9842;SDS011;4960;48.736;9.108;2022-11-09T02:30:33;2.47;;;1.80;;
9842;SDS011;4960;48.736;9.108;2022-11-09T02:33:01;5.43;;;1.80;;
9842;SDS011;4960;48.736;9.108;2022-11-09T02:35:28;2.60;;;1.50;;
9842;SDS011;4960;48.736;9.108;2022-11-09T02:37:57;2.73;;;1.97;;
9842;SDS011;4960;48.736;9.108;2022-11-09T02:40:26;2.93;;;1.70;;
9842;SDS011;4960;48.736;9.108;2022-11-09T02:42:54;3.60;;;1.60;;
9842;SDS011;4960;48.736;9.108;2022-11-09T02:45:22;2.60;;;2.00;;
9842;SDS011;4960;48.736;9.108;2022-11-09T02:47:49;2.30;;;1.70;;
9842;SDS011;4960;48.736;9.108;2022-11-09T02:50:16;2.07;;;1.50;;
9842;SDS011;4960;48.736;9.108;2022-11-09T02:52:43;2.27;;;1.70;;
9842;SDS011;4960;48.736;9.108;2022-11-09T02:55:12;2.17;;;1.63;;
9842;SDS011;4960;48.736;9.108;2022-11-09T02:57:39;4.50;;;2.20;;
9842;SDS011;4960;48.736;9.108;2022-11-09T03:00:07;3.97;;;2.17;;
9842;SDS011;4960;48.736;9.108;2022-11-09T03:02:34;2.70;;;1.90;;
9842;SDS011;4960;48.736;9.108;2022-11-09T03:05:02;3.87;;;2.27;;
9842;SDS011;4960;48.736;9.108;2022-11-09T03:07:29;2.20;;;1.87;;
9842;SDS011;4960;48.736;9.108;2022-11-09T03:09:56;2.07;;;1.83;;
9842;SDS011;4960;48.736;9.108;2022-11-09T03:12:24;2.47;;;2.10;;
9842;SDS011;4960;48.736;9.108;2022-11-09T03:14:55;3.60;;;2.60;;
9842;SDS011;4960;48.736;9.108;2022-11-09T03:17:22;4.20;;;2.77;;
9842;SDS011;4960;48.736;9.108;2022-11-09T03:19:49;3.63;;;3.30;;
9842;SDS011;4960;48.736;9.108;2022-11-09T03:22:16;4.50;;;3.10;;
9842;SDS011;4960;48.736;9.108;2022-11-09T03:24:43;4.23;;;2.80;;
9842;SDS011;4960;48.736;9.108;2022-11-09T03:27:11;6.47;;;3.23;;
9842;SDS011;4960;48.736;9.108;2022-11-09T03:29:40;5.27;;;3.30;;
9842;SDS011;4960;48.736;9.108;2022-11-09T03:32:07;4.33;;;3.00;;
9842;SDS011;4960;48.736;9.108;2022-11-09T03:34:34;4.03;;;2.93;;
9842;SDS011;4960;48.736;9.108;2022-11-09T03:37:01;8.90;;;3.47;;
9842;SDS011;4960;48.736;9.108;2022-11-09T03:39:28;4.83;;;3.60;;
9842;SDS011;4960;48.736;9.108;2022-11-09T03:41:56;5.13;;;3.23;;
9842;SDS011;4960;48.736;9.108;2022-11-09T03:44:23;5.53;;;3.13;;
9842;SDS011;4960;48.736;9.108;2022-11-09T03:46:51;4.07;;;3.03;;
9842;SDS011;4960;48.736;9.108;2022-11-09T03:49:18;5.87;;;2.83;;
9842;SDS011;4960;48.736;9.108;2022-11-09T03:51:47;5.03;;;3.17;;
9842;SDS011;4960;48.736;9.108;2022-11-09T03:54:15;3.07;;;2.87;;
9842;SDS011;4960;48.736;9.108;2022-11-09T03:56:42;3.03;;;2.60;;
9842;SDS011;4960;48.736;9.108;2022-11-09T03:59:09;3.70;;;3.07;;
9842;SDS011;4960;48.736;9.108;2022-11-09T04:01:37;6.10;;;3.00;;
9842;SDS011;4960;48.736;9.108;2022-11-09T04:04:05;4.13;;;2.47;;
9842;SDS011;4960;48.736;9.108;2022-11-09T04:06:32;5.07;;;2.77;;
9842;SDS011;4960;48.736;9.108;2022-11-09T04:08:59;4.87;;;2.80;;
9842;SDS011;4960;48.736;9.108;2022-11-09T04:11:26;3.40;;;2.97;;
9842;SDS011;4960;48.736;9.108;2022-11-09T04:13:54;3.97;;;2.80;;
9842;SDS011;4960;48.736;9.108;2022-11-09T04:16:21;3.20;;;2.47;;
9842;SDS011;4960;48.736;9.108;2022-11-09T04:18:48;3.10;;;2.60;;
9842;SDS011;4960;48.736;9.108;2022-11-09T04:21:16;3.57;;;3.13;;
9842;SDS011;4960;48.736;9.108;2022-11-09T04:23:43;3.87;;;2.53;;
9842;SDS011;4960;48.736;9.108;2022-11-09T04:26:11;3.57;;;2.30;;
9842;SDS011;4960;48.736;9.108;2022-11-09T04:28:38;3.57;;;2.33;;
9842;SDS011;4960;48.736;9.108;2022-11-09T04:31:05;2.97;;;2.30;;
9842;SDS011;4960;48.736;9.108;2022-11-09T04:33:32;3.87;;;1.97;;
9842;SDS011;4960;48.736;9.108;2022-11-09T04:36:02;4.73;;;2.20;;
9842;SDS011;4960;48.736;9.108;2022-11-09T04:38:31;2.90;;;2.60;;
9842;SDS011;4960;48.736;9.108;2022-11-09T04:40:59;3.67;;;2.73;;
9842;SDS011;4960;48.736;9.108;2022-11-09T04:43:27;2.70;;;2.47;;
9842;SDS011;4960;48.736;9.108;2022-11-09T04:45:54;4.30;;;3.00;;
9842;SDS011;4960;48.736;9.108;2022-11-09T04:48:21;4.23;;;2.60;;
9842;SDS011;4960;48.736;9.108;2022-11-09T04:50:48;4.60;;;3.57;;
9842;SDS011;4960;48.736;9.108;2022-11-09T04:53:15;5.90;;;3.00;;
9842;SDS011;4960;48.736;9.108;2022-11-09T04:55:44;3.77;;;3.30;;
9842;SDS011;4960;48.736;9.108;2022-11-09T04:58:11;4.60;;;3.20;;
9842;SDS011;4960;48.736;9.108;2022-11-09T05:00:38;4.87;;;3.40;;
9842;SDS011;4960;48.736;9.108;2022-11-09T05:03:05;4.37;;;3.67;;
9842;SDS011;4960;48.736;9.108;2022-11-09T05:05:33;5.33;;;3.13;;
9842;SDS011;4960;48.736;9.108;2022-11-09T05:08:01;4.20;;;3.80;;
9842;SDS011;4960;48.736;9.108;2022-11-09T05:10:28;4.93;;;3.50;;
9842;SDS011;4960;48.736;9.108;2022-11-09T05:12:57;4.37;;;3.80;;
9842;SDS011;4960;48.736;9.108;2022-11-09T05:15:25;3.97;;;3.57;;
9842;SDS011;4960;48.736;9.108;2022-11-09T05:17:52;5.37;;;3.70;;
9842;SDS011;4960;48.736;9.108;2022-11-09T05:20:19;7.73;;;4.13;;
9842;SDS011;4960;48.736;9.108;2022-11-09T05:22:46;5.30;;;4.50;;
9842;SDS011;4960;48.736;9.108;2022-11-09T05:25:31;3.83;;;3.40;;
9842;SDS011;4960;48.736;9.108;2022-11-09T05:27:59;5.90;;;3.60;;
9842;SDS011;4960;48.736;9.108;2022-11-09T05:30:26;5.23;;;3.57;;
9842;SDS011;4960;48.736;9.108;2022-11-09T05:32:54;5.30;;;3.80;;
9842;SDS011;4960;48.736;9.108;2022-11-09T05:35:21;5.43;;;3.83;;
9842;SDS011;4960;48.736;9.108;2022-11-09T05:37:48;3.60;;;3.30;;
9842;SDS011;4960;48.736;9.108;2022-11-09T05:40:16;9.80;;;4.20;;
9842;SDS011;4960;48.736;9.108;2022-11-09T05:42:43;3.70;;;3.40;;
9842;SDS011;4960;48.736;9.108;2022-11-09T05:45:13;3.93;;;3.43;;
9842;SDS011;4960;48.736;9.108;2022-11-09T05:47:41;7.87;;;4.00;;
9842;SDS011;4960;48.736;9.108;2022-11-09T05:50:09;4.47;;;3.77;;
9842;SDS011;4960;48.736;9.108;2022-11-09T05:52:37;5.43;;;3.93;;
9842;SDS011;4960;48.736;9.108;2022-11-09T05:55:04;5.37;;;4.00;;
9842;SDS011;4960;48.736;9.108;2022-11-09T05:57:32;3.93;;;3.53;;
9842;SDS011;4960;48.736;9.108;2022-11-09T05:59:59;4.00;;;3.60;;
9842;SDS011;4960;48.736;9.108;2022-11-09T06:02:30;5.17;;;3.63;;
9842;SDS011;4960;48.736;9.108;2022-11-09T06:04:57;5.30;;;3.67;;
9842;SDS011;4960;48.736;9.108;2022-11-09T06:07:24;6.03;;;3.63;;
9842;SDS011;4960;48.736;9.108;2022-11-09T06:09:51;8.73;;;4.10;;
9842;SDS011;4960;48.736;9.108;2022-11-09T06:12:19;3.73;;;3.10;;
9842;SDS011;4960;48.736;9.108;2022-11-09T06:14:46;4.83;;;3.60;;
9842;SDS011;4960;48.736;9.108;2022-11-09T06:17:13;4.17;;;3.70;;
9842;SDS011;4960;48.736;9.108;2022-11-09T06:19:41;5.10;;;3.63;;
9842;SDS011;4960;48.736;9.108;2022-11-09T06:22:09;5.33;;;3.67;;
9842;SDS011;4960;48.736;9.108;2022-11-09T06:24:36;11.07;;;4.00;;
9842;SDS011;4960;48.736;9.108;2022-11-09T06:27:03;6.30;;;3.57;;
9842;SDS011;4960;48.736;9.108;2022-11-09T06:29:30;7.40;;;3.40;;
9842;SDS011;4960;48.736;9.108;2022-11-09T06:31:57;3.57;;;3.20;;
9842;SDS011;4960;48.736;9.108;2022-11-09T06:34:24;3.87;;;2.93;;
9842;SDS011;4960;48.736;9.108;2022-11-09T06:36:53;5.53;;;3.50;;
9842;SDS011;4960;48.736;9.108;2022-11-09T06:39:20;3.97;;;3.57;;
9842;SDS011;4960;48.736;9.108;2022-11-09T06:41:47;7.93;;;4.07;;
9842;SDS011;4960;48.736;9.108;2022-11-09T06:44:14;6.17;;;3.43;;
9842;SDS011;4960;48.736;9.108;2022-11-09T06:46:42;4.67;;;3.27;;
9842;SDS011;4960;48.736;9.108;2022-11-09T06:49:09;4.57;;;3.70;;
9842;SDS011;4960;48.736;9.108;2022-11-09T06:51:36;5.57;;;3.90;;
9842;SDS011;4960;48.736;9.108;2022-11-09T06:54:04;5.90;;;3.30;;
9842;SDS011;4960;48.736;9.108;2022-11-09T06:56:32;7.87;;;4.00;;
9842;SDS011;4960;48.736;9.108;2022-11-09T06:58:59;7.23;;;4.67;;
9842;SDS011;4960;48.736;9.108;2022-11-09T07:01:26;7.40;;;4.13;;
9842;SDS011;4960;48.736;9.108;2022-11-09T07:03:54;6.93;;;4.17;;
9842;SDS011;4960;48.736;9.108;2022-11-09T07:06:21;4.53;;;4.17;;
9842;SDS011;4960;48.736;9.108;2022-11-09T07:08:48;4.10;;;3.70;;
9842;SDS011;4960;48.736;9.108;2022-11-09T07:11:17;5.83;;;3.90;;
9842;SDS011;4960;48.736;9.108;2022-11-09T07:13:46;4.27;;;3.87;;
9842;SDS011;4960;48.736;9.108;2022-11-09T07:16:14;3.20;;;3.00;;
9842;SDS011;4960;48.736;9.108;2022-11-09T07:18:41;3.67;;;2.77;;
9842;SDS011;4960;48.736;9.108;2022-11-09T07:21:09;4.13;;;3.20;;
9842;SDS011;4960;48.736;9.108;2022-11-09T07:23:36;4.83;;;3.30;;
9842;SDS011;4960;48.736;9.108;2022-11-09T07:26:04;5.37;;;3.00;;
9842;SDS011;4960;48.736;9.108;2022-11-09T07:28:32;3.17;;;2.70;;
9842;SDS011;4960;48.736;9.108;2022-11-09T07:31:00;3.00;;;2.37;;
9842;SDS011;4960;48.736;9.108;2022-11-09T07:33:27;2.43;;;2.23;;
9842;SDS011;4960;48.736;9.108;2022-11-09T07:35:57;2.90;;;2.60;;
9842;SDS011;4960;48.736;9.108;2022-11-09T07:38:24;3.07;;;2.67;;
9842;SDS011;4960;48.736;9.108;2022-11-09T07:40:52;5.20;;;2.90;;
9842;SDS011;4960;48.736;9.108;2022-11-09T07:43:19;5.50;;;3.17;;
9842;SDS011;4960;48.736;9.108;2022-11-09T07:45:47;6.17;;;3.70;;
9842;SDS011;4960;48.736;9.108;2022-11-09T07:48:14;5.80;;;3.60;;
9842;SDS011;4960;48.736;9.108;2022-11-09T07:50:41;7.43;;;3.27;;
9842;SDS011;4960;48.736;9.108;2022-11-09T07:53:10;6.87;;;3.77;;
9842;SDS011;4960;48.736;9.108;2022-11-09T07:55:38;3.40;;;3.10;;
9842;SDS011;4960;48.736;9.108;2022-11-09T07:58:06;3.33;;;3.03;;
9842;SDS011;4960;48.736;9.108;2022-11-09T08:00:33;3.77;;;3.47;;
9842;SDS011;4960;48.736;9.108;2022-11-09T08:03:02;5.47;;;3.43;;
9842;SDS011;4960;48.736;9.108;2022-11-09T08:05:30;6.20;;;3.60;;
9842;SDS011;4960;48.736;9.108;2022-11-09T08:07:58;5.80;;;3.63;;
9842;SDS011;4960;48.736;9.108;2022-11-09T08:10:26;5.70;;;3.43;;
9842;SDS011;4960;48.736;9.108;2022-11-09T08:12:53;3.97;;;3.50;;
9842;SDS011;4960;48.736;9.108;2022-11-09T08:15:21;4.50;;;4.00;;
9842;SDS011;4960;48.736;9.108;2022-11-09T08:17:48;4.70;;;3.80;;
9842;SDS011;4960;48.736;9.108;2022-11-09T08:20:17;8.90;;;4.43;;
9842;SDS011;4960;48.736;9.108;2022-11-09T08:22:45;8.00;;;4.67;;
9842;SDS011;4960;48.736;9.108;2022-11-09T08:25:12;6.37;;;3.77;;
9842;SDS011;4960;48.736;9.108;2022-11-09T08:27:40;5.80;;;3.57;;
9842;SDS011;4960;48.736;9.108;2022-11-09T08:30:09;3.17;;;2.87;;
9842;SDS011;4960;48.736;9.108;2022-11-09T08:32:37;5.13;;;2.97;;
9842;SDS011;4960;48.736;9.108;2022-11-09T08:35:05;5.33;;;3.40;;
9842;SDS011;4960;48.736;9.108;2022-11-09T08:37:35;4.00;;;2.90;;
9842;SDS011;4960;48.736;9.108;2022-11-09T08:40:03;3.03;;;2.60;;
9842;SDS011;4960;48.736;9.108;2022-11-09T08:42:30;2.67;;;2.47;;
9842;SDS011;4960;48.736;9.108;2022-11-09T08:44:57;3.10;;;2.57;;
9842;SDS011;4960;48.736;9.108;2022-11-09T08:47:24;3.60;;;2.70;;
9842;SDS011;4960;48.736;9.108;2022-11-09T08:49:51;4.57;;;3.00;;
9842;SDS011;4960;48.736;9.108;2022-11-09T08:52:19;4.13;;;2.47;;
9842;SDS011;4960;48.736;9.108;2022-11-09T08:54:47;4.57;;;2.27;;
9842;SDS011;4960;48.736;9.108;2022-11-09T08:57:16;5.63;;;2.33;;
9842;SDS011;4960;48.736;9.108;2022-11-09T08:59:43;2.77;;;2.20;;
9842;SDS011;4960;48.736;9.108;2022-11-09T09:02:11;2.47;;;1.97;;
9842;SDS011;4960;48.736;9.108;2022-11-09T09:04:38;2.97;;;1.80;;
9842;SDS011;4960;48.736;9.108;2022-11-09T09:07:05;4.77;;;1.50;;
9842;SDS011;4960;48.736;9.108;2022-11-09T09:09:32;2.20;;;1.60;;
9842;SDS011;4960;48.736;9.108;2022-11-09T09:12:03;1.57;;;1.40;;
9842;SDS011;4960;48.736;9.108;2022-11-09T09:14:30;4.83;;;1.90;;
9842;SDS011;4960;48.736;9.108;2022-11-09T09:16:57;2.40;;;1.70;;
9842;SDS011;4960;48.736;9.108;2022-11-09T09:19:24;2.03;;;1.53;;
9842;SDS011;4960;48.736;9.108;2022-11-09T09:21:51;2.20;;;1.30;;
9842;SDS011;4960;48.736;9.108;2022-11-09T09:24:18;1.30;;;1.20;;
9842;SDS011;4960;48.736;9.108;2022-11-09T09:26:46;5.20;;;1.50;;
9842;SDS011;4960;48.736;9.108;2022-11-09T09:29:14;2.67;;;1.30;;
9842;SDS011;4960;48.736;9.108;2022-11-09T09:31:41;2.13;;;1.70;;
9842;SDS011;4960;48.736;9.108;2022-11-09T09:34:09;2.27;;;1.57;;
9842;SDS011;4960;48.736;9.108;2022-11-09T09:36:36;1.30;;;1.10;;
9842;SDS011;4960;48.736;9.108;2022-11-09T09:39:04;3.33;;;1.10;;
9842;SDS011;4960;48.736;9.108;2022-11-09T09:41:34;3.30;;;1.30;;
9842;SDS011;4960;48.736;9.108;2022-11-09T09:44:06;1.03;;;1.03;;
9842;SDS011;4960;48.736;9.108;2022-11-09T09:46:39;1.93;;;1.20;;
9842;SDS011;4960;48.736;9.108;2022-11-09T09:49:11;1.93;;;1.27;;
9842;SDS011;4960;48.736;9.108;2022-11-09T09:51:39;2.63;;;1.30;;
9842;SDS011;4960;48.736;9.108;2022-11-09T09:54:10;2.00;;;1.00;;
9842;SDS011;4960;48.736;9.108;2022-11-09T09:56:39;2.40;;;1.30;;
9842;SDS011;4960;48.736;9.108;2022-11-09T09:59:09;1.73;;;1.20;;
9842;SDS011;4960;48.736;9.108;2022-11-09T10:01:39;4.43;;;1.27;;
9842;SDS011;4960;48.736;9.108;2022-11-09T10:04:09;2.27;;;1.40;;
9842;SDS011;4960;48.736;9.108;2022-11-09T10:06:41;1.27;;;1.17;;
9842;SDS011;4960;48.736;9.108;2022-11-09T10:09:20;1.40;;;1.30;;
9842;SDS011;4960;48.736;9.108;2022-11-09T10:11:52;1.07;;;1.03;;
9842;SDS011;4960;48.736;9.108;2022-11-09T10:14:28;1.60;;;1.40;;
9842;SDS011;4960;48.736;9.108;2022-11-09T10:17:04;2.00;;;1.10;;
9842;SDS011;4960;48.736;9.108;2022-11-09T10:19:37;1.57;;;1.47;;
9842;SDS011;4960;48.736;9.108;2022-11-09T10:22:08;1.87;;;1.60;;
9842;SDS011;4960;48.736;9.108;2022-11-09T10:24:39;2.80;;;1.40;;
9842;SDS011;4960;48.736;9.108;2022-11-09T10:27:12;3.73;;;1.50;;
9842;SDS011;4960;48.736;9.108;2022-11-09T10:29:45;3.70;;;1.50;;
9842;SDS011;4960;48.736;9.108;2022-11-09T10:32:14;2.67;;;1.90;;
9842;SDS011;4960;48.736;9.108;2022-11-09T10:34:42;3.40;;;1.87;;
9842;SDS011;4960;48.736;9.108;2022-11-09T10:37:14;4.13;;;1.63;;
9842;SDS011;4960;48.736;9.108;2022-11-09T10:39:43;2.53;;;1.70;;
9842;SDS011;4960;48.736;9.108;2022-11-09T10:42:12;1.70;;;1.50;;
9842;SDS011;4960;48.736;9.108;2022-11-09T10:44:39;3.03;;;1.83;;
9842;SDS011;4960;48.736;9.108;2022-11-09T10:47:07;1.77;;;1.43;;
9842;SDS011;4960;48.736;9.108;2022-11-09T10:49:38;2.33;;;1.77;;
9842;SDS011;4960;48.736;9.108;2022-11-09T10:52:08;1.83;;;1.63;;
9842;SDS011;4960;48.736;9.108;2022-11-09T10:54:54;2.33;;;1.77;;
9842;SDS011;4960;48.736;9.108;2022-11-09T10:57:48;2.90;;;1.63;;
9842;SDS011;4960;48.736;9.108;2022-11-09T11:00:16;3.93;;;1.90;;
9842;SDS011;4960;48.736;9.108;2022-11-09T11:02:47;2.73;;;1.47;;
9842;SDS011;4960;48.736;9.108;2022-11-09T11:05:20;4.47;;;1.43;;
9842;SDS011;4960;48.736;9.108;2022-11-09T11:07:47;1.80;;;1.43;;
9842;SDS011;4960;48.736;9.108;2022-11-09T11:10:18;2.00;;;1.30;;
9842;SDS011;4960;48.736;9.108;2022-11-09T11:12:50;1.70;;;1.53;;
9842;SDS011;4960;48.736;9.108;2022-11-09T11:15:20;1.63;;;1.53;;
9842;SDS011;4960;48.736;9.108;2022-11-09T11:17:48;2.50;;;1.60;;
9842;SDS011;4960;48.736;9.108;2022-11-09T11:20:25;4.60;;;1.80;;
9842;SDS011;4960;48.736;9.108;2022-11-09T11:23:00;2.33;;;1.50;;
9842;SDS011;4960;48.736;9.108;2022-11-09T11:25:32;4.20;;;1.97;;
9842;SDS011;4960;48.736;9.108;2022-11-09T11:28:01;3.17;;;2.13;;
9842;SDS011;4960;48.736;9.108;2022-11-09T11:30:32;1.47;;;1.37;;
9842;SDS011;4960;48.736;9.108;2022-11-09T11:33:01;1.73;;;1.63;;
9842;SDS011;4960;48.736;9.108;2022-11-09T11:35:32;1.53;;;1.27;;
9842;SDS011;4960;48.736;9.108;2022-11-09T11:38:05;1.67;;;1.53;;
9842;SDS011;4960;48.736;9.108;2022-11-09T11:40:37;2.67;;;1.80;;
9842;SDS011;4960;48.736;9.108;2022-11-09T11:43:21;2.97;;;1.43;;
9842;SDS011;4960;48.736;9.108;2022-11-09T11:45:54;2.33;;;1.63;;
9842;SDS011;4960;48.736;9.108;2022-11-09T11:48:29;1.80;;;1.40;;
9842;SDS011;4960;48.736;9.108;2022-11-09T11:50:58;2.53;;;1.40;;
9842;SDS011;4960;48.736;9.108;2022-11-09T11:53:30;1.73;;;1.60;;
9842;SDS011;4960;48.736;9.108;2022-11-09T11:56:09;1.87;;;1.70;;
9842;SDS011;4960;48.736;9.108;2022-11-09T11:58:43;1.97;;;1.40;;
9842;SDS011;4960;48.736;9.108;2022-11-09T12:01:16;2.33;;;1.80;;
9842;SDS011;4960;48.736;9.108;2022-11-09T12:03:52;2.37;;;1.40;;
9842;SDS011;4960;48.736;9.108;2022-11-09T12:06:26;1.73;;;1.30;;
9842;SDS011;4960;48.736;9.108;2022-11-09T12:09:01;1.80;;;1.60;;
9842;SDS011;4960;48.736;9.108;2022-11-09T12:11:34;2.07;;;1.87;;
9842;SDS011;4960;48.736;9.108;2022-11-09T12:14:07;2.43;;;1.73;;
9842;SDS011;4960;48.736;9.108;2022-11-09T12:16:37;4.00;;;1.50;;
9842;SDS011;4960;48.736;9.108;2022-11-09T12:19:12;1.70;;;1.47;;
9842;SDS011;4960;48.736;9.108;2022-11-09T12:21:43;2.00;;;1.40;;
9842;SDS011;4960;48.736;9.108;2022-11-09T12:24:14;2.33;;;1.50;;
9842;SDS011;4960;48.736;9.108;2022-11-09T12:26:50;4.60;;;1.50;;
9842;SDS011;4960;48.736;9.108;2022-11-09T12:29:19;1.23;;;1.13;;
9842;SDS011;4960;48.736;9.108;2022-11-09T12:31:51;1.47;;;1.33;;
9842;SDS011;4960;48.736;9.108;2022-11-09T12:34:22;1.60;;;1.50;;
9842;SDS011;4960;48.736;9.108;2022-11-09T12:36:52;1.30;;;1.00;;
9842;SDS011;4960;48.736;9.108;2022-11-09T12:39:21;6.33;;;1.73;;
9842;SDS011;4960;48.736;9.108;2022-11-09T12:41:52;1.30;;;1.20;;
9842;SDS011;4960;48.736;9.108;2022-11-09T12:44:21;1.70;;;1.20;;
9842;SDS011;4960;48.736;9.108;2022-11-09T12:46:51;1.93;;;1.30;;
9842;SDS011;4960;48.736;9.108;2022-11-09T12:49:29;1.57;;;1.13;;
9842;SDS011;4960;48.736;9.108;2022-11-09T12:51:57;3.63;;;1.43;;
9842;SDS011;4960;48.736;9.108;2022-11-09T12:54:24;3.10;;;1.40;;
9842;SDS011;4960;48.736;9.108;2022-11-09T12:56:54;2.70;;;1.20;;
9842;SDS011;4960;48.736;9.108;2022-11-09T12:59:32;2.60;;;1.63;;
9842;SDS011;4960;48.736;9.108;2022-11-09T13:02:00;1.40;;;1.30;;
9842;SDS011;4960;48.736;9.108;2022-11-09T13:04:28;1.43;;;1.33;;
9842;SDS011;4960;48.736;9.108;2022-11-09T13:07:15;1.87;;;1.50;;
9842;SDS011;4960;48.736;9.108;2022-11-09T13:09:43;3.30;;;1.33;;
9842;SDS011;4960;48.736;9.108;2022-11-09T13:12:18;1.60;;;1.20;;
9842;SDS011;4960;48.736;9.108;2022-11-09T13:14:46;3.07;;;1.50;;
9842;SDS011;4960;48.736;9.108;2022-11-09T13:19:59;2.93;;;1.43;;
9842;SDS011;4960;48.736;9.108;2022-11-09T13:28:01;2.73;;;1.50;;
9842;SDS011;4960;48.736;9.108;2022-11-09T13:30:36;1.40;;;1.23;;
9842;SDS011;4960;48.736;9.108;2022-11-09T13:38:37;3.57;;;1.33;;
9842;SDS011;4960;48.736;9.108;2022-11-09T13:41:38;2.10;;;1.73;;
9842;SDS011;4960;48.736;9.108;2022-11-09T13:44:11;2.67;;;1.80;;
9842;SDS011;4960;48.736;9.108;2022-11-09T13:46:39;4.20;;;1.83;;
9842;SDS011;4960;48.736;9.108;2022-11-09T13:51:48;2.83;;;1.60;;
9842;SDS011;4960;48.736;9.108;2022-11-09T13:54:26;5.93;;;2.07;;
9842;SDS011;4960;48.736;9.108;2022-11-09T13:56:54;1.90;;;1.80;;
9842;SDS011;4960;48.736;9.108;2022-11-09T13:59:24;3.13;;;1.97;;
9842;SDS011;4960;48.736;9.108;2022-11-09T14:01:53;3.33;;;2.37;;
9842;SDS011;4960;48.736;9.108;2022-11-09T14:04:22;2.90;;;2.20;;
9842;SDS011;4960;48.736;9.108;2022-11-09T14:06:49;3.30;;;1.57;;
9842;SDS011;4960;48.736;9.108;2022-11-09T14:09:20;2.00;;;1.70;;
9842;SDS011;4960;48.736;9.108;2022-11-09T14:12:10;1.80;;;1.70;;
9842;SDS011;4960;48.736;9.108;2022-11-09T14:14:45;3.30;;;2.10;;
9842;SDS011;4960;48.736;9.108;2022-11-09T14:17:18;2.40;;;2.20;;
9842;SDS011;4960;48.736;9.108;2022-11-09T14:19:49;3.00;;;1.70;;
9842;SDS011;4960;48.736;9.108;2022-11-09T14:22:20;4.30;;;1.70;;
9842;SDS011;4960;48.736;9.108;2022-11-09T14:24:48;2.00;;;1.87;;
9842;SDS011;4960;48.736;9.108;2022-11-09T14:27:16;2.00;;;1.80;;
9842;SDS011;4960;48.736;9.108;2022-11-09T14:29:50;3.47;;;1.90;;
9842;SDS011;4960;48.736;9.108;2022-11-09T14:32:27;2.73;;;1.87;;
9842;SDS011;4960;48.736;9.108;2022-11-09T14:35:11;3.03;;;2.13;;
9842;SDS011;4960;48.736;9.108;2022-11-09T14:37:41;3.37;;;1.97;;
9842;SDS011;4960;48.736;9.108;2022-11-09T14:40:14;2.53;;;2.10;;
9842;SDS011;4960;48.736;9.108;2022-11-09T14:42:44;2.67;;;2.10;;
9842;SDS011;4960;48.736;9.108;2022-11-09T14:45:14;2.10;;;1.80;;
9842;SDS011;4960;48.736;9.108;2022-11-09T14:47:43;5.80;;;2.00;;
9842;SDS011;4960;48.736;9.108;2022-11-09T14:50:13;3.70;;;2.20;;
9842;SDS011;4960;48.736;9.108;2022-11-09T14:52:41;2.40;;;2.20;;
9842;SDS011;4960;48.736;9.108;2022-11-09T14:55:10;4.40;;;2.87;;
9842;SDS011;4960;48.736;9.108;2022-11-09T14:57:38;3.60;;;3.03;;
9842;SDS011;4960;48.736;9.108;2022-11-09T15:00:19;3.10;;;2.80;;
9842;SDS011;4960;48.736;9.108;2022-11-09T15:02:47;4.40;;;2.40;;
9842;SDS011;4960;48.736;9.108;2022-11-09T15:05:26;7.03;;;2.60;;
9842;SDS011;4960;48.736;9.108;2022-11-09T15:07:53;2.40;;;1.97;;
9842;SDS011;4960;48.736;9.108;2022-11-09T15:10:22;3.10;;;2.17;;
9842;SDS011;4960;48.736;9.108;2022-11-09T15:12:56;3.73;;;1.97;;
9842;SDS011;4960;48.736;9.108;2022-11-09T15:15:27;2.67;;;2.00;;
9842;SDS011;4960;48.736;9.108;2022-11-09T15:17:54;5.07;;;2.10;;
9842;SDS011;4960;48.736;9.108;2022-11-09T15:20:24;3.13;;;2.37;;
9842;SDS011;4960;48.736;9.108;2022-11-09T15:22:52;2.50;;;2.20;;
9842;SDS011;4960;48.736;9.108;2022-11-09T15:25:21;3.20;;;2.43;;
9842;SDS011;4960;48.736;9.108;2022-11-09T15:30:41;5.40;;;2.30;;
9842;SDS011;4960;48.736;9.108;2022-11-09T15:33:17;3.30;;;1.77;;
9842;SDS011;4960;48.736;9.108;2022-11-09T15:35:48;3.07;;;2.00;;
9842;SDS011;4960;48.736;9.108;2022-11-09T15:38:29;4.20;;;2.10;;
9842;SDS011;4960;48.736;9.108;2022-11-09T15:40:56;3.17;;;1.90;;
9842;SDS011;4960;48.736;9.108;2022-11-09T15:43:24;2.27;;;1.60;;
9842;SDS011;4960;48.736;9.108;2022-11-09T15:45:53;3.43;;;1.90;;
9842;SDS011;4960;48.736;9.108;2022-11-09T15:48:20;2.70;;;1.90;;